Avondale, Texas
Current Conditions -  °F | °C
As of 5:52 PM on Sunday 21 Dec 2014 (Local Time) from KHRL Reporting Station
Overcast Overcast  
Wind Chill: 63°   Ceiling: 900
Heat Index: 63°   Visibility: 10mi
Dew Point: 59°   Wind: 7mph
Humidity: 87%   Direction: 350°N
Pressure: 29.92"   Gusts: NA
Location:  26.2089°N, 97.6849°W
Report Text: KHRL 212352Z 35006KT 10SM OVC009 17/15 A2992 RMK AO2 SLP133 T01720150 10189 20161 56006
Loading
Personal Weather Stations






























Interactive Weather Map New forecast layout! Learn more

10-Day Weather Forecast

Advertisements
Track Severe Weather on mobile